sensor_id;sensor_type;location;lat;lon;timestamp;temperature;humidity
46117;DHT22;32591;48.102;11.772;2022-11-20T00:00:22;5.80;99.90
46117;DHT22;32591;48.102;11.772;2022-11-20T00:02:49;5.90;99.90
46117;DHT22;32591;48.102;11.772;2022-11-20T00:05:16;5.80;99.90
46117;DHT22;32591;48.102;11.772;2022-11-20T00:07:43;5.70;99.90
46117;DHT22;32591;48.102;11.772;2022-11-20T00:10:10;5.70;99.90
46117;DHT22;32591;48.102;11.772;2022-11-20T00:12:37;5.60;99.90
46117;DHT22;32591;48.102;11.772;2022-11-20T00:15:05;5.70;99.90
46117;DHT22;32591;48.102;11.772;2022-11-20T00:17:34;5.80;99.90
46117;DHT22;32591;48.102;11.772;2022-11-20T00:20:01;5.80;99.90
46117;DHT22;32591;48.102;11.772;2022-11-20T00:22:28;5.80;99.90
46117;DHT22;32591;48.102;11.772;2022-11-20T00:24:55;5.80;99.90
46117;DHT22;32591;48.102;11.772;2022-11-20T00:27:23;5.80;99.90
46117;DHT22;32591;48.102;11.772;2022-11-20T00:29:50;5.80;99.90
46117;DHT22;32591;48.102;11.772;2022-11-20T00:32:17;5.70;99.90
46117;DHT22;32591;48.102;11.772;2022-11-20T00:34:45;5.70;99.90
46117;DHT22;32591;48.102;11.772;2022-11-20T00:37:12;5.80;99.90
46117;DHT22;32591;48.102;11.772;2022-11-20T00:39:39;5.70;99.90
46117;DHT22;32591;48.102;11.772;2022-11-20T00:42:06;5.90;99.90
46117;DHT22;32591;48.102;11.772;2022-11-20T00:44:33;5.90;99.90
46117;DHT22;32591;48.102;11.772;2022-11-20T00:47:01;5.90;99.90
46117;DHT22;32591;48.102;11.772;2022-11-20T00:49:28;5.90;99.90
46117;DHT22;32591;48.102;11.772;2022-11-20T00:51:56;5.80;99.90
46117;DHT22;32591;48.102;11.772;2022-11-20T00:54:23;5.70;99.90
46117;DHT22;32591;48.102;11.772;2022-11-20T00:56:52;5.70;99.90
46117;DHT22;32591;48.102;11.772;2022-11-20T00:59:19;5.70;99.90
46117;DHT22;32591;48.102;11.772;2022-11-20T01:01:46;5.60;99.90
46117;DHT22;32591;48.102;11.772;2022-11-20T01:04:13;5.60;99.90
46117;DHT22;32591;48.102;11.772;2022-11-20T01:06:40;5.60;99.90
46117;DHT22;32591;48.102;11.772;2022-11-20T01:09:12;5.50;99.90
46117;DHT22;32591;48.102;11.772;2022-11-20T01:11:43;5.50;99.90
46117;DHT22;32591;48.102;11.772;2022-11-20T01:14:12;5.50;99.90
46117;DHT22;32591;48.102;11.772;2022-11-20T01:16:43;5.50;99.90
46117;DHT22;32591;48.102;11.772;2022-11-20T01:19:13;5.60;99.90
46117;DHT22;32591;48.102;11.772;2022-11-20T01:21:42;5.60;99.90
46117;DHT22;32591;48.102;11.772;2022-11-20T01:24:14;5.80;99.90
46117;DHT22;32591;48.102;11.772;2022-11-20T01:26:44;5.80;99.90
46117;DHT22;32591;48.102;11.772;2022-11-20T01:29:14;5.90;99.90
46117;DHT22;32591;48.102;11.772;2022-11-20T01:31:42;5.70;99.90
46117;DHT22;32591;48.102;11.772;2022-11-20T01:34:12;5.80;99.90
46117;DHT22;32591;48.102;11.772;2022-11-20T01:36:41;5.80;99.90
46117;DHT22;32591;48.102;11.772;2022-11-20T01:39:13;5.80;99.90
46117;DHT22;32591;48.102;11.772;2022-11-20T01:41:42;5.70;99.90
46117;DHT22;32591;48.102;11.772;2022-11-20T01:44:49;5.70;99.90
46117;DHT22;32591;48.102;11.772;2022-11-20T01:47:24;5.70;99.90
46117;DHT22;32591;48.102;11.772;2022-11-20T01:49:57;5.80;99.90
46117;DHT22;32591;48.102;11.772;2022-11-20T01:52:29;5.80;99.90
46117;DHT22;32591;48.102;11.772;2022-11-20T01:55:04;5.80;99.90
46117;DHT22;32591;48.102;11.772;2022-11-20T01:57:34;5.90;99.90
46117;DHT22;32591;48.102;11.772;2022-11-20T02:00:06;5.90;99.90
46117;DHT22;32591;48.102;11.772;2022-11-20T02:02:36;5.90;99.90
46117;DHT22;32591;48.102;11.772;2022-11-20T02:05:10;5.90;99.90
46117;DHT22;32591;48.102;11.772;2022-11-20T02:07:40;5.90;99.90
46117;DHT22;32591;48.102;11.772;2022-11-20T02:10:09;5.80;99.90
46117;DHT22;32591;48.102;11.772;2022-11-20T02:12:36;5.80;99.90
46117;DHT22;32591;48.102;11.772;2022-11-20T02:15:33;5.80;99.90
46117;DHT22;32591;48.102;11.772;2022-11-20T02:18:00;5.80;99.90
46117;DHT22;32591;48.102;11.772;2022-11-20T02:20:27;5.90;99.90
46117;DHT22;32591;48.102;11.772;2022-11-20T02:22:57;5.90;99.90
46117;DHT22;32591;48.102;11.772;2022-11-20T02:25:29;5.90;99.90
46117;DHT22;32591;48.102;11.772;2022-11-20T02:27:56;5.70;99.90
46117;DHT22;32591;48.102;11.772;2022-11-20T02:30:23;5.70;99.90
46117;DHT22;32591;48.102;11.772;2022-11-20T02:32:51;5.70;99.90
46117;DHT22;32591;48.102;11.772;2022-11-20T02:35:40;5.80;99.90
46117;DHT22;32591;48.102;11.772;2022-11-20T02:38:09;5.80;99.90
46117;DHT22;32591;48.102;11.772;2022-11-20T02:40:38;5.80;99.90
46117;DHT22;32591;48.102;11.772;2022-11-20T02:43:05;5.70;99.90
46117;DHT22;32591;48.102;11.772;2022-11-20T02:45:32;5.70;99.90
46117;DHT22;32591;48.102;11.772;2022-11-20T02:47:59;5.70;99.90
46117;DHT22;32591;48.102;11.772;2022-11-20T02:50:26;5.70;99.90
46117;DHT22;32591;48.102;11.772;2022-11-20T02:52:53;5.70;99.90
46117;DHT22;32591;48.102;11.772;2022-11-20T02:55:20;5.70;99.90
46117;DHT22;32591;48.102;11.772;2022-11-20T02:57:49;5.80;99.90
46117;DHT22;32591;48.102;11.772;2022-11-20T03:00:16;5.80;99.90
46117;DHT22;32591;48.102;11.772;2022-11-20T03:02:43;5.70;99.90
46117;DHT22;32591;48.102;11.772;2022-11-20T03:05:10;5.70;99.90
46117;DHT22;32591;48.102;11.772;2022-11-20T03:07:37;5.70;99.90
46117;DHT22;32591;48.102;11.772;2022-11-20T03:10:05;5.70;99.90
46117;DHT22;32591;48.102;11.772;2022-11-20T03:12:32;5.70;99.90
46117;DHT22;32591;48.102;11.772;2022-11-20T03:15:01;5.60;99.90
46117;DHT22;32591;48.102;11.772;2022-11-20T03:17:28;5.80;99.90
46117;DHT22;32591;48.102;11.772;2022-11-20T03:19:55;5.70;99.90
46117;DHT22;32591;48.102;11.772;2022-11-20T03:22:21;5.70;99.90
46117;DHT22;32591;48.102;11.772;2022-11-20T03:24:48;5.70;99.90
46117;DHT22;32591;48.102;11.772;2022-11-20T03:27:16;5.70;99.90
46117;DHT22;32591;48.102;11.772;2022-11-20T03:29:43;5.70;99.90
46117;DHT22;32591;48.102;11.772;2022-11-20T03:32:11;5.80;99.90
46117;DHT22;32591;48.102;11.772;2022-11-20T03:34:38;5.70;99.90
46117;DHT22;32591;48.102;11.772;2022-11-20T03:37:06;5.80;99.90
46117;DHT22;32591;48.102;11.772;2022-11-20T03:39:33;5.70;99.90
46117;DHT22;32591;48.102;11.772;2022-11-20T03:42:00;5.80;99.90
46117;DHT22;32591;48.102;11.772;2022-11-20T03:44:27;5.70;99.90
46117;DHT22;32591;48.102;11.772;2022-11-20T03:46:54;5.70;99.90
46117;DHT22;32591;48.102;11.772;2022-11-20T03:49:22;5.70;99.90
46117;DHT22;32591;48.102;11.772;2022-11-20T03:51:49;5.60;99.90
46117;DHT22;32591;48.102;11.772;2022-11-20T03:54:16;5.60;99.90
46117;DHT22;32591;48.102;11.772;2022-11-20T03:56:43;5.60;99.90
46117;DHT22;32591;48.102;11.772;2022-11-20T03:59:10;5.60;99.90
46117;DHT22;32591;48.102;11.772;2022-11-20T04:01:37;5.60;99.90
46117;DHT22;32591;48.102;11.772;2022-11-20T04:04:04;5.60;99.90
46117;DHT22;32591;48.102;11.772;2022-11-20T04:06:36;5.70;99.90
46117;DHT22;32591;48.102;11.772;2022-11-20T04:09:04;5.60;99.90
46117;DHT22;32591;48.102;11.772;2022-11-20T04:11:33;5.70;99.90
46117;DHT22;32591;48.102;11.772;2022-11-20T04:14:02;5.70;99.90
46117;DHT22;32591;48.102;11.772;2022-11-20T04:16:32;5.70;99.90
46117;DHT22;32591;48.102;11.772;2022-11-20T04:19:02;5.70;99.90
46117;DHT22;32591;48.102;11.772;2022-11-20T04:21:29;5.70;99.90
46117;DHT22;32591;48.102;11.772;2022-11-20T04:23:58;5.70;99.90
46117;DHT22;32591;48.102;11.772;2022-11-20T04:26:27;5.60;99.90
46117;DHT22;32591;48.102;11.772;2022-11-20T04:28:55;5.60;99.90
46117;DHT22;32591;48.102;11.772;2022-11-20T04:31:23;5.70;99.90
46117;DHT22;32591;48.102;11.772;2022-11-20T04:33:51;5.60;99.90
46117;DHT22;32591;48.102;11.772;2022-11-20T04:36:20;5.70;99.90
46117;DHT22;32591;48.102;11.772;2022-11-20T04:38:51;5.70;99.90
46117;DHT22;32591;48.102;11.772;2022-11-20T04:41:22;5.80;99.90
46117;DHT22;32591;48.102;11.772;2022-11-20T04:43:52;5.70;99.90
46117;DHT22;32591;48.102;11.772;2022-11-20T04:46:25;5.70;99.90
46117;DHT22;32591;48.102;11.772;2022-11-20T04:48:53;5.70;99.90
46117;DHT22;32591;48.102;11.772;2022-11-20T04:51:20;5.70;99.90
46117;DHT22;32591;48.102;11.772;2022-11-20T04:53:47;5.70;99.90
46117;DHT22;32591;48.102;11.772;2022-11-20T04:56:14;5.70;99.90
46117;DHT22;32591;48.102;11.772;2022-11-20T04:58:43;5.60;99.90
46117;DHT22;32591;48.102;11.772;2022-11-20T05:01:12;5.70;99.90
46117;DHT22;32591;48.102;11.772;2022-11-20T05:03:41;5.70;99.90
46117;DHT22;32591;48.102;11.772;2022-11-20T05:06:09;5.80;99.90
46117;DHT22;32591;48.102;11.772;2022-11-20T05:08:37;5.70;99.90
46117;DHT22;32591;48.102;11.772;2022-11-20T05:11:06;5.70;99.90
46117;DHT22;32591;48.102;11.772;2022-11-20T05:13:34;5.70;99.90
46117;DHT22;32591;48.102;11.772;2022-11-20T05:16:03;5.70;99.90
46117;DHT22;32591;48.102;11.772;2022-11-20T05:18:31;5.70;99.90
46117;DHT22;32591;48.102;11.772;2022-11-20T05:20:58;5.80;99.90
46117;DHT22;32591;48.102;11.772;2022-11-20T05:23:26;5.80;99.90
46117;DHT22;32591;48.102;11.772;2022-11-20T05:25:54;5.70;99.90
46117;DHT22;32591;48.102;11.772;2022-11-20T05:28:23;5.70;99.90
46117;DHT22;32591;48.102;11.772;2022-11-20T05:30:51;5.70;99.90
46117;DHT22;32591;48.102;11.772;2022-11-20T05:33:19;5.70;99.90
46117;DHT22;32591;48.102;11.772;2022-11-20T05:35:46;5.60;99.90
46117;DHT22;32591;48.102;11.772;2022-11-20T05:38:14;5.60;99.90
46117;DHT22;32591;48.102;11.772;2022-11-20T05:40:41;5.60;99.90
46117;DHT22;32591;48.102;11.772;2022-11-20T05:43:08;5.60;99.90
46117;DHT22;32591;48.102;11.772;2022-11-20T05:45:35;5.60;99.90
46117;DHT22;32591;48.102;11.772;2022-11-20T05:48:02;5.60;99.90
46117;DHT22;32591;48.102;11.772;2022-11-20T05:50:30;5.60;99.90
46117;DHT22;32591;48.102;11.772;2022-11-20T05:52:58;5.70;99.90
46117;DHT22;32591;48.102;11.772;2022-11-20T05:55:25;5.70;99.90
46117;DHT22;32591;48.102;11.772;2022-11-20T05:57:53;5.70;99.90
46117;DHT22;32591;48.102;11.772;2022-11-20T06:00:20;5.80;99.90
46117;DHT22;32591;48.102;11.772;2022-11-20T06:02:47;5.80;99.90
46117;DHT22;32591;48.102;11.772;2022-11-20T06:05:14;5.80;99.90
46117;DHT22;32591;48.102;11.772;2022-11-20T06:07:42;5.80;99.90
46117;DHT22;32591;48.102;11.772;2022-11-20T06:10:09;5.80;99.90
46117;DHT22;32591;48.102;11.772;2022-11-20T06:12:37;5.70;99.90
46117;DHT22;32591;48.102;11.772;2022-11-20T06:15:05;5.80;99.90
46117;DHT22;32591;48.102;11.772;2022-11-20T06:17:32;5.90;99.90
46117;DHT22;32591;48.102;11.772;2022-11-20T06:19:59;5.80;99.90
46117;DHT22;32591;48.102;11.772;2022-11-20T06:22:26;5.80;99.90
46117;DHT22;32591;48.102;11.772;2022-11-20T06:24:55;5.70;99.90
46117;DHT22;32591;48.102;11.772;2022-11-20T06:27:21;5.80;99.90
46117;DHT22;32591;48.102;11.772;2022-11-20T06:29:49;5.70;99.90
46117;DHT22;32591;48.102;11.772;2022-11-20T06:32:16;5.70;99.90
46117;DHT22;32591;48.102;11.772;2022-11-20T06:34:43;5.70;99.90
46117;DHT22;32591;48.102;11.772;2022-11-20T06:37:10;5.70;99.90
46117;DHT22;32591;48.102;11.772;2022-11-20T06:39:37;5.70;99.90
46117;DHT22;32591;48.102;11.772;2022-11-20T06:42:05;5.60;99.90
46117;DHT22;32591;48.102;11.772;2022-11-20T06:44:32;5.60;99.90
46117;DHT22;32591;48.102;11.772;2022-11-20T06:46:59;5.60;99.90
46117;DHT22;32591;48.102;11.772;2022-11-20T06:49:26;5.50;99.90
46117;DHT22;32591;48.102;11.772;2022-11-20T06:51:53;5.50;99.90
46117;DHT22;32591;48.102;11.772;2022-11-20T06:54:20;5.50;99.90
46117;DHT22;32591;48.102;11.772;2022-11-20T06:56:47;5.50;99.90
46117;DHT22;32591;48.102;11.772;2022-11-20T06:59:15;5.50;99.90
46117;DHT22;32591;48.102;11.772;2022-11-20T07:01:42;5.50;99.90
46117;DHT22;32591;48.102;11.772;2022-11-20T07:04:09;5.40;99.90
46117;DHT22;32591;48.102;11.772;2022-11-20T07:06:36;5.40;99.90
46117;DHT22;32591;48.102;11.772;2022-11-20T07:09:03;5.40;99.90
46117;DHT22;32591;48.102;11.772;2022-11-20T07:11:30;5.40;99.90
46117;DHT22;32591;48.102;11.772;2022-11-20T07:13:57;5.50;99.90
46117;DHT22;32591;48.102;11.772;2022-11-20T07:16:25;5.50;99.90
46117;DHT22;32591;48.102;11.772;2022-11-20T07:18:52;5.40;99.90
46117;DHT22;32591;48.102;11.772;2022-11-20T07:21:19;5.40;99.90
46117;DHT22;32591;48.102;11.772;2022-11-20T07:23:46;5.40;99.90
46117;DHT22;32591;48.102;11.772;2022-11-20T07:26:13;5.50;99.90
46117;DHT22;32591;48.102;11.772;2022-11-20T07:28:43;5.50;99.90
46117;DHT22;32591;48.102;11.772;2022-11-20T07:31:10;5.50;99.90
46117;DHT22;32591;48.102;11.772;2022-11-20T07:33:39;5.50;99.90
46117;DHT22;32591;48.102;11.772;2022-11-20T07:36:07;5.60;99.90
46117;DHT22;32591;48.102;11.772;2022-11-20T07:38:34;5.70;99.90
46117;DHT22;32591;48.102;11.772;2022-11-20T07:41:01;5.80;99.90
46117;DHT22;32591;48.102;11.772;2022-11-20T07:43:28;5.80;99.90
46117;DHT22;32591;48.102;11.772;2022-11-20T07:45:55;5.90;99.90
46117;DHT22;32591;48.102;11.772;2022-11-20T07:48:23;5.90;99.90
46117;DHT22;32591;48.102;11.772;2022-11-20T07:50:54;5.90;99.90
46117;DHT22;32591;48.102;11.772;2022-11-20T07:53:22;5.90;99.90
46117;DHT22;32591;48.102;11.772;2022-11-20T07:55:49;5.90;99.90
46117;DHT22;32591;48.102;11.772;2022-11-20T07:58:18;5.80;99.90
46117;DHT22;32591;48.102;11.772;2022-11-20T08:00:45;5.80;99.90
46117;DHT22;32591;48.102;11.772;2022-11-20T08:03:12;5.80;99.90
46117;DHT22;32591;48.102;11.772;2022-11-20T08:05:39;5.70;99.90
46117;DHT22;32591;48.102;11.772;2022-11-20T08:08:07;5.80;99.90
46117;DHT22;32591;48.102;11.772;2022-11-20T08:10:34;5.80;99.90
46117;DHT22;32591;48.102;11.772;2022-11-20T08:13:01;5.80;99.90
46117;DHT22;32591;48.102;11.772;2022-11-20T08:15:48;5.80;99.90
46117;DHT22;32591;48.102;11.772;2022-11-20T08:18:17;5.90;99.90
46117;DHT22;32591;48.102;11.772;2022-11-20T08:20:44;6.00;99.90
46117;DHT22;32591;48.102;11.772;2022-11-20T08:23:13;5.90;99.90
46117;DHT22;32591;48.102;11.772;2022-11-20T08:25:40;6.00;99.90
46117;DHT22;32591;48.102;11.772;2022-11-20T08:28:09;5.90;99.90
46117;DHT22;32591;48.102;11.772;2022-11-20T08:30:36;6.00;99.90
46117;DHT22;32591;48.102;11.772;2022-11-20T08:33:05;6.10;99.90
46117;DHT22;32591;48.102;11.772;2022-11-20T08:35:34;6.10;99.90
46117;DHT22;32591;48.102;11.772;2022-11-20T08:38:01;6.10;99.90
46117;DHT22;32591;48.102;11.772;2022-11-20T08:40:30;6.00;99.90
46117;DHT22;32591;48.102;11.772;2022-11-20T08:42:57;6.10;99.90
46117;DHT22;32591;48.102;11.772;2022-11-20T08:45:24;6.10;99.90
46117;DHT22;32591;48.102;11.772;2022-11-20T08:47:51;6.20;99.90
46117;DHT22;32591;48.102;11.772;2022-11-20T08:50:18;6.20;99.90
46117;DHT22;32591;48.102;11.772;2022-11-20T08:52:45;6.20;99.90
46117;DHT22;32591;48.102;11.772;2022-11-20T08:55:13;6.20;99.90
46117;DHT22;32591;48.102;11.772;2022-11-20T08:57:41;6.30;99.90
46117;DHT22;32591;48.102;11.772;2022-11-20T09:00:11;6.30;99.90
46117;DHT22;32591;48.102;11.772;2022-11-20T09:02:38;6.40;99.90
46117;DHT22;32591;48.102;11.772;2022-11-20T09:05:06;6.40;99.90
46117;DHT22;32591;48.102;11.772;2022-11-20T09:07:33;6.40;99.90
46117;DHT22;32591;48.102;11.772;2022-11-20T09:10:00;6.50;99.90
46117;DHT22;32591;48.102;11.772;2022-11-20T09:12:27;6.50;99.90
46117;DHT22;32591;48.102;11.772;2022-11-20T09:14:55;6.50;99.90
46117;DHT22;32591;48.102;11.772;2022-11-20T09:17:22;6.50;99.90
46117;DHT22;32591;48.102;11.772;2022-11-20T09:19:49;6.50;99.90
46117;DHT22;32591;48.102;11.772;2022-11-20T09:22:16;6.50;99.90
46117;DHT22;32591;48.102;11.772;2022-11-20T09:24:42;6.70;99.90
46117;DHT22;32591;48.102;11.772;2022-11-20T09:27:09;6.80;99.90
46117;DHT22;32591;48.102;11.772;2022-11-20T09:29:36;6.90;99.90
46117;DHT22;32591;48.102;11.772;2022-11-20T09:32:05;6.80;99.90
46117;DHT22;32591;48.102;11.772;2022-11-20T09:34:32;6.80;99.90
46117;DHT22;32591;48.102;11.772;2022-11-20T09:36:59;6.80;99.90
46117;DHT22;32591;48.102;11.772;2022-11-20T09:39:26;6.70;99.90
46117;DHT22;32591;48.102;11.772;2022-11-20T09:42:05;6.70;99.90
46117;DHT22;32591;48.102;11.772;2022-11-20T09:44:52;6.70;99.90
46117;DHT22;32591;48.102;11.772;2022-11-20T09:47:39;6.70;99.90
46117;DHT22;32591;48.102;11.772;2022-11-20T09:50:25;6.90;99.90
46117;DHT22;32591;48.102;11.772;2022-11-20T09:53:09;6.90;99.90
46117;DHT22;32591;48.102;11.772;2022-11-20T09:55:39;6.90;99.90
46117;DHT22;32591;48.102;11.772;2022-11-20T09:58:12;7.00;99.90
46117;DHT22;32591;48.102;11.772;2022-11-20T10:00:42;7.10;99.90
46117;DHT22;32591;48.102;11.772;2022-11-20T10:03:16;7.10;99.90
46117;DHT22;32591;48.102;11.772;2022-11-20T10:05:49;7.10;99.90
46117;DHT22;32591;48.102;11.772;2022-11-20T10:08:21;7.20;99.90
46117;DHT22;32591;48.102;11.772;2022-11-20T10:10:54;7.20;99.90
46117;DHT22;32591;48.102;11.772;2022-11-20T10:13:34;7.30;99.90
46117;DHT22;32591;48.102;11.772;2022-11-20T10:16:18;7.30;99.90
46117;DHT22;32591;48.102;11.772;2022-11-20T10:19:03;7.30;99.90
46117;DHT22;32591;48.102;11.772;2022-11-20T10:21:41;7.30;99.90
46117;DHT22;32591;48.102;11.772;2022-11-20T10:24:41;7.40;99.90
46117;DHT22;32591;48.102;11.772;2022-11-20T10:27:30;7.40;99.90
46117;DHT22;32591;48.102;11.772;2022-11-20T10:30:09;7.50;99.90
46117;DHT22;32591;48.102;11.772;2022-11-20T10:32:39;7.60;99.90
46117;DHT22;32591;48.102;11.772;2022-11-20T10:35:23;7.60;99.90
46117;DHT22;32591;48.102;11.772;2022-11-20T10:37:56;7.70;99.90
46117;DHT22;32591;48.102;11.772;2022-11-20T10:40:31;7.70;99.90
46117;DHT22;32591;48.102;11.772;2022-11-20T10:43:03;7.60;99.90
46117;DHT22;32591;48.102;11.772;2022-11-20T10:45:48;7.60;99.90
46117;DHT22;32591;48.102;11.772;2022-11-20T10:48:21;7.70;99.90
46117;DHT22;32591;48.102;11.772;2022-11-20T10:51:12;7.70;99.90
46117;DHT22;32591;48.102;11.772;2022-11-20T10:53:56;7.80;99.90
46117;DHT22;32591;48.102;11.772;2022-11-20T10:56:33;7.80;99.90
46117;DHT22;32591;48.102;11.772;2022-11-20T11:02:18;7.90;99.90
46117;DHT22;32591;48.102;11.772;2022-11-20T11:04:47;7.90;99.90
46117;DHT22;32591;48.102;11.772;2022-11-20T11:07:19;7.90;99.90
46117;DHT22;32591;48.102;11.772;2022-11-20T11:09:49;8.10;99.90
46117;DHT22;32591;48.102;11.772;2022-11-20T11:12:17;8.10;99.90
46117;DHT22;32591;48.102;11.772;2022-11-20T11:14:47;8.10;99.90
46117;DHT22;32591;48.102;11.772;2022-11-20T11:17:24;8.10;99.90
46117;DHT22;32591;48.102;11.772;2022-11-20T11:19:58;8.10;99.90
46117;DHT22;32591;48.102;11.772;2022-11-20T11:22:29;8.00;99.90
46117;DHT22;32591;48.102;11.772;2022-11-20T11:24:56;8.00;99.90
46117;DHT22;32591;48.102;11.772;2022-11-20T11:27:23;7.90;99.90
46117;DHT22;32591;48.102;11.772;2022-11-20T11:30:02;7.90;99.90
46117;DHT22;32591;48.102;11.772;2022-11-20T11:32:38;7.80;99.90
46117;DHT22;32591;48.102;11.772;2022-11-20T11:35:07;7.80;99.90
46117;DHT22;32591;48.102;11.772;2022-11-20T11:37:48;7.80;99.90
46117;DHT22;32591;48.102;11.772;2022-11-20T11:40:18;7.80;99.90
46117;DHT22;32591;48.102;11.772;2022-11-20T11:42:50;7.70;99.90
46117;DHT22;32591;48.102;11.772;2022-11-20T11:45:21;7.80;99.90
46117;DHT22;32591;48.102;11.772;2022-11-20T11:47:48;7.80;99.90
46117;DHT22;32591;48.102;11.772;2022-11-20T11:50:18;7.90;99.90
46117;DHT22;32591;48.102;11.772;2022-11-20T11:52:56;7.80;99.90
46117;DHT22;32591;48.102;11.772;2022-11-20T11:55:35;7.80;99.90
46117;DHT22;32591;48.102;11.772;2022-11-20T11:58:12;7.80;99.90
46117;DHT22;32591;48.102;11.772;2022-11-20T12:00:50;7.90;99.90
46117;DHT22;32591;48.102;11.772;2022-11-20T12:03:24;7.90;99.90
46117;DHT22;32591;48.102;11.772;2022-11-20T12:05:57;8.10;99.90
46117;DHT22;32591;48.102;11.772;2022-11-20T12:08:32;8.10;99.90
46117;DHT22;32591;48.102;11.772;2022-11-20T12:11:12;8.10;99.90
46117;DHT22;32591;48.102;11.772;2022-11-20T12:13:49;8.30;99.90
46117;DHT22;32591;48.102;11.772;2022-11-20T12:16:19;8.30;99.90
46117;DHT22;32591;48.102;11.772;2022-11-20T12:18:49;8.30;99.90
46117;DHT22;32591;48.102;11.772;2022-11-20T12:21:30;8.20;99.90
46117;DHT22;32591;48.102;11.772;2022-11-20T12:24:18;8.20;99.90
46117;DHT22;32591;48.102;11.772;2022-11-20T12:27:05;8.10;99.90
46117;DHT22;32591;48.102;11.772;2022-11-20T12:29:48;8.10;99.90
46117;DHT22;32591;48.102;11.772;2022-11-20T12:32:37;8.10;99.90
46117;DHT22;32591;48.102;11.772;2022-11-20T12:35:31;8.10;99.90
46117;DHT22;32591;48.102;11.772;2022-11-20T12:38:23;7.90;99.90
46117;DHT22;32591;48.102;11.772;2022-11-20T12:41:05;7.80;99.90
46117;DHT22;32591;48.102;11.772;2022-11-20T12:43:42;7.40;99.90
46117;DHT22;32591;48.102;11.772;2022-11-20T12:46:46;7.30;99.90
46117;DHT22;32591;48.102;11.772;2022-11-20T12:49:29;7.20;99.90
46117;DHT22;32591;48.102;11.772;2022-11-20T12:52:09;7.20;99.90
46117;DHT22;32591;48.102;11.772;2022-11-20T12:57:54;7.10;99.90
46117;DHT22;32591;48.102;11.772;2022-11-20T13:00:24;7.00;99.90
46117;DHT22;32591;48.102;11.772;2022-11-20T13:03:13;7.00;99.90
46117;DHT22;32591;48.102;11.772;2022-11-20T13:06:09;7.10;99.90
46117;DHT22;32591;48.102;11.772;2022-11-20T13:08:40;6.90;99.90
46117;DHT22;32591;48.102;11.772;2022-11-20T13:11:14;6.90;99.90
46117;DHT22;32591;48.102;11.772;2022-11-20T13:14:03;6.80;99.90
46117;DHT22;32591;48.102;11.772;2022-11-20T13:16:40;6.80;99.90
46117;DHT22;32591;48.102;11.772;2022-11-20T13:19:13;6.80;99.90
46117;DHT22;32591;48.102;11.772;2022-11-20T13:21:44;6.80;99.90
46117;DHT22;32591;48.102;11.772;2022-11-20T13:24:23;6.70;99.90
46117;DHT22;32591;48.102;11.772;2022-11-20T13:27:03;6.70;99.90
46117;DHT22;32591;48.102;11.772;2022-11-20T13:29:34;6.70;99.90
46117;DHT22;32591;48.102;11.772;2022-11-20T13:32:05;6.70;99.90
46117;DHT22;32591;48.102;11.772;2022-11-20T13:34:33;6.70;99.90
46117;DHT22;32591;48.102;11.772;2022-11-20T13:37:01;6.70;99.90
46117;DHT22;32591;48.102;11.772;2022-11-20T13:39:30;6.60;99.90
46117;DHT22;32591;48.102;11.772;2022-11-20T13:42:00;6.60;99.90
46117;DHT22;32591;48.102;11.772;2022-11-20T13:44:33;6.50;99.90
46117;DHT22;32591;48.102;11.772;2022-11-20T13:47:04;6.50;99.90
46117;DHT22;32591;48.102;11.772;2022-11-20T13:49:33;6.50;99.90
46117;DHT22;32591;48.102;11.772;2022-11-20T13:52:15;6.50;99.90
46117;DHT22;32591;48.102;11.772;2022-11-20T13:55:05;6.50;99.90
46117;DHT22;32591;48.102;11.772;2022-11-20T13:57:55;6.50;99.90
46117;DHT22;32591;48.102;11.772;2022-11-20T14:00:27;6.40;99.90
46117;DHT22;32591;48.102;11.772;2022-11-20T14:03:09;6.40;99.90
46117;DHT22;32591;48.102;11.772;2022-11-20T14:05:49;6.40;99.90
46117;DHT22;32591;48.102;11.772;2022-11-20T14:08:25;6.50;99.90
46117;DHT22;32591;48.102;11.772;2022-11-20T14:11:14;6.50;99.90
46117;DHT22;32591;48.102;11.772;2022-11-20T14:13:57;6.60;99.90
46117;DHT22;32591;48.102;11.772;2022-11-20T14:16:28;6.50;99.90
46117;DHT22;32591;48.102;11.772;2022-11-20T14:18:58;6.50;99.90
46117;DHT22;32591;48.102;11.772;2022-11-20T14:21:51;6.60;99.90
46117;DHT22;32591;48.102;11.772;2022-11-20T14:24:21;6.60;99.90
46117;DHT22;32591;48.102;11.772;2022-11-20T14:26:50;6.60;99.90
46117;DHT22;32591;48.102;11.772;2022-11-20T14:29:19;6.60;99.90
46117;DHT22;32591;48.102;11.772;2022-11-20T14:31:52;6.70;99.90
46117;DHT22;32591;48.102;11.772;2022-11-20T14:34:23;6.70;99.90
46117;DHT22;32591;48.102;11.772;2022-11-20T14:36:55;6.70;99.90
46117;DHT22;32591;48.102;11.772;2022-11-20T14:39:28;6.70;99.90
46117;DHT22;32591;48.102;11.772;2022-11-20T14:41:57;6.70;99.90
46117;DHT22;32591;48.102;11.772;2022-11-20T14:44:27;6.70;99.90
46117;DHT22;32591;48.102;11.772;2022-11-20T14:46:59;6.70;99.90
46117;DHT22;32591;48.102;11.772;2022-11-20T14:49:29;6.60;99.90
46117;DHT22;32591;48.102;11.772;2022-11-20T14:52:01;6.60;99.90
46117;DHT22;32591;48.102;11.772;2022-11-20T14:54:29;6.70;99.90
46117;DHT22;32591;48.102;11.772;2022-11-20T14:56:58;6.70;99.90
46117;DHT22;32591;48.102;11.772;2022-11-20T14:59:29;6.70;99.90
46117;DHT22;32591;48.102;11.772;2022-11-20T15:02:00;6.70;99.90
46117;DHT22;32591;48.102;11.772;2022-11-20T15:04:28;6.70;99.90
46117;DHT22;32591;48.102;11.772;2022-11-20T15:06:57;6.70;99.90
46117;DHT22;32591;48.102;11.772;2022-11-20T15:09:25;6.70;99.90
46117;DHT22;32591;48.102;11.772;2022-11-20T15:11:54;6.70;99.90
46117;DHT22;32591;48.102;11.772;2022-11-20T15:14:23;6.60;99.90
46117;DHT22;32591;48.102;11.772;2022-11-20T15:16:52;6.60;99.90
46117;DHT22;32591;48.102;11.772;2022-11-20T15:19:22;6.60;99.90
46117;DHT22;32591;48.102;11.772;2022-11-20T15:21:50;6.60;99.90
46117;DHT22;32591;48.102;11.772;2022-11-20T15:24:17;6.60;99.90
46117;DHT22;32591;48.102;11.772;2022-11-20T15:26:45;6.60;99.90
46117;DHT22;32591;48.102;11.772;2022-11-20T15:29:15;6.70;99.90
46117;DHT22;32591;48.102;11.772;2022-11-20T15:31:44;6.60;99.90
46117;DHT22;32591;48.102;11.772;2022-11-20T15:34:12;6.60;99.90
46117;DHT22;32591;48.102;11.772;2022-11-20T15:36:43;6.60;99.90
46117;DHT22;32591;48.102;11.772;2022-11-20T15:39:10;6.60;99.90
46117;DHT22;32591;48.102;11.772;2022-11-20T15:41:37;6.60;99.90
46117;DHT22;32591;48.102;11.772;2022-11-20T15:44:05;6.60;99.90
46117;DHT22;32591;48.102;11.772;2022-11-20T15:46:35;6.50;99.90
46117;DHT22;32591;48.102;11.772;2022-11-20T15:49:06;6.50;99.90
46117;DHT22;32591;48.102;11.772;2022-11-20T15:51:39;6.50;99.90
46117;DHT22;32591;48.102;11.772;2022-11-20T15:54:11;6.40;99.90
46117;DHT22;32591;48.102;11.772;2022-11-20T15:56:40;6.40;99.90
46117;DHT22;32591;48.102;11.772;2022-11-20T15:59:07;6.40;99.90